sensor_id;sensor_type;location;lat;lon;timestamp;temperature;humidity
43414;DHT22;29013;49.676;8.606;2023-10-09T00:01:47;14.9;99.9
43414;DHT22;29013;49.676;8.606;2023-10-09T00:07:07;15.1;99.9
43414;DHT22;29013;49.676;8.606;2023-10-09T00:12:28;15.1;99.9
43414;DHT22;29013;49.676;8.606;2023-10-09T00:17:52;15.0;99.9
43414;DHT22;29013;49.676;8.606;2023-10-09T00:23:15;15.0;99.9
43414;DHT22;29013;49.676;8.606;2023-10-09T00:28:39;15.1;99.9
43414;DHT22;29013;49.676;8.606;2023-10-09T00:34:10;15.1;99.9
43414;DHT22;29013;49.676;8.606;2023-10-09T00:39:28;15.2;99.9
43414;DHT22;29013;49.676;8.606;2023-10-09T00:44:50;15.2;99.9
43414;DHT22;29013;49.676;8.606;2023-10-09T00:50:21;15.3;99.9
43414;DHT22;29013;49.676;8.606;2023-10-09T00:55:41;15.3;99.9
43414;DHT22;29013;49.676;8.606;2023-10-09T01:01:04;15.4;99.9
43414;DHT22;29013;49.676;8.606;2023-10-09T01:06:27;15.3;99.9
43414;DHT22;29013;49.676;8.606;2023-10-09T01:11:50;15.3;99.9
43414;DHT22;29013;49.676;8.606;2023-10-09T01:17:15;15.3;99.9
43414;DHT22;29013;49.676;8.606;2023-10-09T01:22:36;15.4;99.9
43414;DHT22;29013;49.676;8.606;2023-10-09T01:28:17;15.3;99.9
43414;DHT22;29013;49.676;8.606;2023-10-09T01:33:40;15.5;99.9
43414;DHT22;29013;49.676;8.606;2023-10-09T01:39:05;15.5;99.9
43414;DHT22;29013;49.676;8.606;2023-10-09T01:44:29;15.4;99.9
43414;DHT22;29013;49.676;8.606;2023-10-09T01:49:49;15.5;99.9
43414;DHT22;29013;49.676;8.606;2023-10-09T01:55:14;15.5;99.9
43414;DHT22;29013;49.676;8.606;2023-10-09T02:00:36;15.5;99.9
43414;DHT22;29013;49.676;8.606;2023-10-09T02:05:55;15.5;99.9
43414;DHT22;29013;49.676;8.606;2023-10-09T02:11:18;15.5;99.9
43414;DHT22;29013;49.676;8.606;2023-10-09T02:17:19;15.4;99.9
43414;DHT22;29013;49.676;8.606;2023-10-09T02:22:39;15.6;99.9
43414;DHT22;29013;49.676;8.606;2023-10-09T02:28:06;15.6;99.9
43414;DHT22;29013;49.676;8.606;2023-10-09T02:33:28;15.6;99.9
43414;DHT22;29013;49.676;8.606;2023-10-09T02:39:20;15.5;99.9
43414;DHT22;29013;49.676;8.606;2023-10-09T02:44:43;15.6;99.9
43414;DHT22;29013;49.676;8.606;2023-10-09T02:50:40;15.5;99.9
43414;DHT22;29013;49.676;8.606;2023-10-09T02:56:03;15.6;99.9
43414;DHT22;29013;49.676;8.606;2023-10-09T03:01:27;15.5;99.9
43414;DHT22;29013;49.676;8.606;2023-10-09T03:06:49;15.5;99.9
43414;DHT22;29013;49.676;8.606;2023-10-09T03:12:12;15.3;99.9
43414;DHT22;29013;49.676;8.606;2023-10-09T03:17:34;15.1;99.9
43414;DHT22;29013;49.676;8.606;2023-10-09T03:22:55;15.0;99.9
43414;DHT22;29013;49.676;8.606;2023-10-09T03:28:37;15.0;99.9
43414;DHT22;29013;49.676;8.606;2023-10-09T03:33:56;15.2;99.9
43414;DHT22;29013;49.676;8.606;2023-10-09T03:39:19;15.2;99.9
43414;DHT22;29013;49.676;8.606;2023-10-09T03:44:42;15.2;99.9
43414;DHT22;29013;49.676;8.606;2023-10-09T03:50:09;15.2;99.9
43414;DHT22;29013;49.676;8.606;2023-10-09T03:55:32;15.3;99.9
43414;DHT22;29013;49.676;8.606;2023-10-09T04:00:56;15.3;99.9
43414;DHT22;29013;49.676;8.606;2023-10-09T04:06:16;15.3;99.9
43414;DHT22;29013;49.676;8.606;2023-10-09T04:11:39;15.3;99.9
43414;DHT22;29013;49.676;8.606;2023-10-09T04:16:59;15.3;99.9
43414;DHT22;29013;49.676;8.606;2023-10-09T04:22:36;15.4;99.9
43414;DHT22;29013;49.676;8.606;2023-10-09T04:27:57;15.5;99.9
43414;DHT22;29013;49.676;8.606;2023-10-09T04:33:17;15.5;99.9
43414;DHT22;29013;49.676;8.606;2023-10-09T04:38:41;15.5;99.9
43414;DHT22;29013;49.676;8.606;2023-10-09T04:44:04;15.5;99.9
43414;DHT22;29013;49.676;8.606;2023-10-09T04:49:27;15.5;99.9
43414;DHT22;29013;49.676;8.606;2023-10-09T04:54:50;15.5;99.9
43414;DHT22;29013;49.676;8.606;2023-10-09T05:00:15;15.4;99.9
43414;DHT22;29013;49.676;8.606;2023-10-09T05:05:38;15.4;99.9
43414;DHT22;29013;49.676;8.606;2023-10-09T05:11:02;15.4;99.9
43414;DHT22;29013;49.676;8.606;2023-10-09T05:16:24;15.4;99.9
43414;DHT22;29013;49.676;8.606;2023-10-09T05:21:48;15.4;99.9
43414;DHT22;29013;49.676;8.606;2023-10-09T05:27:11;15.4;99.9
43414;DHT22;29013;49.676;8.606;2023-10-09T05:32:34;15.4;99.9
43414;DHT22;29013;49.676;8.606;2023-10-09T05:37:59;15.4;99.9
43414;DHT22;29013;49.676;8.606;2023-10-09T05:43:20;15.4;99.9
43414;DHT22;29013;49.676;8.606;2023-10-09T05:48:41;15.4;99.9
43414;DHT22;29013;49.676;8.606;2023-10-09T05:54:26;15.4;99.9
43414;DHT22;29013;49.676;8.606;2023-10-09T05:59:48;15.6;99.9
43414;DHT22;29013;49.676;8.606;2023-10-09T06:05:12;15.7;99.9
43414;DHT22;29013;49.676;8.606;2023-10-09T06:10:34;15.7;99.9
43414;DHT22;29013;49.676;8.606;2023-10-09T06:16:04;15.8;99.9
43414;DHT22;29013;49.676;8.606;2023-10-09T06:21:26;15.9;99.9
43414;DHT22;29013;49.676;8.606;2023-10-09T06:26:46;16.0;99.9
43414;DHT22;29013;49.676;8.606;2023-10-09T06:32:06;15.8;99.9
43414;DHT22;29013;49.676;8.606;2023-10-09T06:37:25;15.7;99.9
43414;DHT22;29013;49.676;8.606;2023-10-09T06:42:47;15.7;99.9
43414;DHT22;29013;49.676;8.606;2023-10-09T06:48:11;15.9;99.9
43414;DHT22;29013;49.676;8.606;2023-10-09T06:53:35;16.1;99.9
43414;DHT22;29013;49.676;8.606;2023-10-09T06:58:59;16.2;99.9
43414;DHT22;29013;49.676;8.606;2023-10-09T07:04:17;16.3;99.9
43414;DHT22;29013;49.676;8.606;2023-10-09T07:09:41;16.4;99.9
43414;DHT22;29013;49.676;8.606;2023-10-09T07:15:08;16.6;99.9
43414;DHT22;29013;49.676;8.606;2023-10-09T07:20:29;16.6;99.9
43414;DHT22;29013;49.676;8.606;2023-10-09T07:26:00;16.7;99.9
43414;DHT22;29013;49.676;8.606;2023-10-09T07:31:21;16.8;99.9
43414;DHT22;29013;49.676;8.606;2023-10-09T07:36:40;16.9;99.9
43414;DHT22;29013;49.676;8.606;2023-10-09T07:42:28;17.0;99.9
43414;DHT22;29013;49.676;8.606;2023-10-09T07:47:49;17.2;99.9
43414;DHT22;29013;49.676;8.606;2023-10-09T07:53:11;17.2;99.9
43414;DHT22;29013;49.676;8.606;2023-10-09T07:58:37;17.1;99.9
43414;DHT22;29013;49.676;8.606;2023-10-09T08:04:01;16.9;99.9
43414;DHT22;29013;49.676;8.606;2023-10-09T08:09:22;17.1;99.9
43414;DHT22;29013;49.676;8.606;2023-10-09T08:14:46;17.4;99.9
43414;DHT22;29013;49.676;8.606;2023-10-09T08:20:31;17.7;99.9
43414;DHT22;29013;49.676;8.606;2023-10-09T08:25:52;18.1;99.9
43414;DHT22;29013;49.676;8.606;2023-10-09T08:31:17;18.2;99.9
43414;DHT22;29013;49.676;8.606;2023-10-09T08:36:40;18.3;99.9
43414;DHT22;29013;49.676;8.606;2023-10-09T08:42:01;18.5;99.9
43414;DHT22;29013;49.676;8.606;2023-10-09T08:47:23;18.6;99.9
43414;DHT22;29013;49.676;8.606;2023-10-09T08:52:49;18.7;99.9
43414;DHT22;29013;49.676;8.606;2023-10-09T08:58:09;18.8;99.9
43414;DHT22;29013;49.676;8.606;2023-10-09T09:03:40;18.8;99.9
43414;DHT22;29013;49.676;8.606;2023-10-09T09:08:58;18.8;99.9
43414;DHT22;29013;49.676;8.606;2023-10-09T09:14:40;18.8;99.9
43414;DHT22;29013;49.676;8.606;2023-10-09T09:20:12;19.0;99.9
43414;DHT22;29013;49.676;8.606;2023-10-09T09:25:44;19.2;99.9
43414;DHT22;29013;49.676;8.606;2023-10-09T09:31:10;19.3;99.9
43414;DHT22;29013;49.676;8.606;2023-10-09T09:36:29;19.4;99.9
43414;DHT22;29013;49.676;8.606;2023-10-09T09:41:54;19.4;99.8
43414;DHT22;29013;49.676;8.606;2023-10-09T09:47:17;19.3;99.9
43414;DHT22;29013;49.676;8.606;2023-10-09T09:52:42;19.2;99.8
43414;DHT22;29013;49.676;8.606;2023-10-09T09:58:06;19.2;99.9
43414;DHT22;29013;49.676;8.606;2023-10-09T10:03:31;19.2;99.9
43414;DHT22;29013;49.676;8.606;2023-10-09T10:08:55;19.2;99.9
43414;DHT22;29013;49.676;8.606;2023-10-09T10:14:19;19.3;99.9
43414;DHT22;29013;49.676;8.606;2023-10-09T10:20:00;19.4;99.4
43414;DHT22;29013;49.676;8.606;2023-10-09T10:25:37;19.2;99.5
43414;DHT22;29013;49.676;8.606;2023-10-09T10:31:05;19.4;99.7
43414;DHT22;29013;49.676;8.606;2023-10-09T10:36:27;19.6;99.7
43414;DHT22;29013;49.676;8.606;2023-10-09T10:41:57;19.7;99.7
43414;DHT22;29013;49.676;8.606;2023-10-09T10:47:39;19.8;99.8
43414;DHT22;29013;49.676;8.606;2023-10-09T10:53:08;20.0;99.2
43414;DHT22;29013;49.676;8.606;2023-10-09T10:58:31;20.2;99.3
43414;DHT22;29013;49.676;8.606;2023-10-09T11:03:53;20.3;98.9
43414;DHT22;29013;49.676;8.606;2023-10-09T11:09:15;20.5;98.9
43414;DHT22;29013;49.676;8.606;2023-10-09T11:14:46;20.5;98.6
43414;DHT22;29013;49.676;8.606;2023-10-09T11:20:09;20.6;98.4
43414;DHT22;29013;49.676;8.606;2023-10-09T11:25:32;20.7;98.4
43414;DHT22;29013;49.676;8.606;2023-10-09T11:30:54;20.9;98.6
43414;DHT22;29013;49.676;8.606;2023-10-09T11:36:18;21.1;98.6
43414;DHT22;29013;49.676;8.606;2023-10-09T11:41:43;21.2;98.5
43414;DHT22;29013;49.676;8.606;2023-10-09T11:47:02;21.2;97.9
43414;DHT22;29013;49.676;8.606;2023-10-09T11:52:24;21.2;97.9
43414;DHT22;29013;49.676;8.606;2023-10-09T11:57:49;21.2;98.2
43414;DHT22;29013;49.676;8.606;2023-10-09T12:03:12;21.2;98.2
43414;DHT22;29013;49.676;8.606;2023-10-09T12:08:35;21.3;98.2
43414;DHT22;29013;49.676;8.606;2023-10-09T12:14:00;21.4;97.5
43414;DHT22;29013;49.676;8.606;2023-10-09T12:19:24;21.3;97.7
43414;DHT22;29013;49.676;8.606;2023-10-09T12:25:12;21.3;97.5
43414;DHT22;29013;49.676;8.606;2023-10-09T12:30:36;21.5;96.8
43414;DHT22;29013;49.676;8.606;2023-10-09T12:36:22;21.8;96.4
43414;DHT22;29013;49.676;8.606;2023-10-09T12:41:44;22.2;96.1
43414;DHT22;29013;49.676;8.606;2023-10-09T12:47:30;22.4;95.7
43414;DHT22;29013;49.676;8.606;2023-10-09T12:52:52;22.7;95.1
43414;DHT22;29013;49.676;8.606;2023-10-09T12:58:16;22.7;94.9
43414;DHT22;29013;49.676;8.606;2023-10-09T13:03:38;22.7;94.7
43414;DHT22;29013;49.676;8.606;2023-10-09T13:08:59;22.8;94.8
43414;DHT22;29013;49.676;8.606;2023-10-09T13:14:24;22.8;94.0
43414;DHT22;29013;49.676;8.606;2023-10-09T13:19:48;22.9;94.0
43414;DHT22;29013;49.676;8.606;2023-10-09T13:25:09;22.9;93.6
43414;DHT22;29013;49.676;8.606;2023-10-09T13:30:31;23.0;93.9
43414;DHT22;29013;49.676;8.606;2023-10-09T13:35:52;23.1;93.9
43414;DHT22;29013;49.676;8.606;2023-10-09T13:41:16;23.2;94.0
43414;DHT22;29013;49.676;8.606;2023-10-09T13:46:40;23.2;93.7
43414;DHT22;29013;49.676;8.606;2023-10-09T13:52:06;23.2;93.3
43414;DHT22;29013;49.676;8.606;2023-10-09T13:57:31;23.1;92.8
43414;DHT22;29013;49.676;8.606;2023-10-09T14:02:54;23.0;92.6
43414;DHT22;29013;49.676;8.606;2023-10-09T14:08:20;23.0;93.0
43414;DHT22;29013;49.676;8.606;2023-10-09T14:13:40;23.1;93.0
43414;DHT22;29013;49.676;8.606;2023-10-09T14:19:03;23.1;93.2
43414;DHT22;29013;49.676;8.606;2023-10-09T14:24:30;23.2;93.3
43414;DHT22;29013;49.676;8.606;2023-10-09T14:29:51;23.2;93.2
43414;DHT22;29013;49.676;8.606;2023-10-09T14:35:14;23.2;93.1
43414;DHT22;29013;49.676;8.606;2023-10-09T14:40:35;23.3;93.0
43414;DHT22;29013;49.676;8.606;2023-10-09T14:46:18;23.2;93.0
43414;DHT22;29013;49.676;8.606;2023-10-09T14:51:39;23.3;92.8
43414;DHT22;29013;49.676;8.606;2023-10-09T14:57:02;23.2;92.5
43414;DHT22;29013;49.676;8.606;2023-10-09T15:02:25;23.1;92.3
43414;DHT22;29013;49.676;8.606;2023-10-09T15:07:47;23.0;92.1
43414;DHT22;29013;49.676;8.606;2023-10-09T15:13:10;22.9;92.2
43414;DHT22;29013;49.676;8.606;2023-10-09T15:23:51;22.7;92.4
43414;DHT22;29013;49.676;8.606;2023-10-09T15:29:13;22.5;93.5
43414;DHT22;29013;49.676;8.606;2023-10-09T15:34:35;22.4;93.8
43414;DHT22;29013;49.676;8.606;2023-10-09T15:39:58;22.2;94.8
43414;DHT22;29013;49.676;8.606;2023-10-09T15:45:21;22.0;95.2
43414;DHT22;29013;49.676;8.606;2023-10-09T15:50:48;21.8;95.8
43414;DHT22;29013;49.676;8.606;2023-10-09T15:56:12;21.7;96.2
43414;DHT22;29013;49.676;8.606;2023-10-09T16:01:36;21.6;96.4
43414;DHT22;29013;49.676;8.606;2023-10-09T16:07:00;21.4;96.8
43414;DHT22;29013;49.676;8.606;2023-10-09T16:12:25;21.3;96.8
43414;DHT22;29013;49.676;8.606;2023-10-09T16:17:50;21.2;97.5
43414;DHT22;29013;49.676;8.606;2023-10-09T16:23:12;21.0;97.7
43414;DHT22;29013;49.676;8.606;2023-10-09T16:28:37;20.8;97.7
43414;DHT22;29013;49.676;8.606;2023-10-09T16:33:59;20.6;97.9
43414;DHT22;29013;49.676;8.606;2023-10-09T16:39:23;20.4;98.0
43414;DHT22;29013;49.676;8.606;2023-10-09T16:44:46;20.2;98.3
43414;DHT22;29013;49.676;8.606;2023-10-09T16:50:11;20.1;98.3
43414;DHT22;29013;49.676;8.606;2023-10-09T16:55:33;20.0;98.7
43414;DHT22;29013;49.676;8.606;2023-10-09T17:00:54;19.8;98.5
43414;DHT22;29013;49.676;8.606;2023-10-09T17:06:39;19.7;98.8
43414;DHT22;29013;49.676;8.606;2023-10-09T17:12:01;19.7;98.3
43414;DHT22;29013;49.676;8.606;2023-10-09T17:18:03;19.6;98.8
43414;DHT22;29013;49.676;8.606;2023-10-09T17:23:25;19.7;98.2
43414;DHT22;29013;49.676;8.606;2023-10-09T17:28:50;19.7;98.2
43414;DHT22;29013;49.676;8.606;2023-10-09T17:34:13;19.5;98.4
43414;DHT22;29013;49.676;8.606;2023-10-09T17:39:35;19.5;98.6
43414;DHT22;29013;49.676;8.606;2023-10-09T17:44:58;19.3;98.8
43414;DHT22;29013;49.676;8.606;2023-10-09T17:50:41;19.2;99.2
43414;DHT22;29013;49.676;8.606;2023-10-09T17:56:26;19.1;99.3
43414;DHT22;29013;49.676;8.606;2023-10-09T18:01:44;19.2;99.1
43414;DHT22;29013;49.676;8.606;2023-10-09T18:07:06;19.0;99.0
43414;DHT22;29013;49.676;8.606;2023-10-09T18:12:31;18.8;99.3
43414;DHT22;29013;49.676;8.606;2023-10-09T18:17:55;18.7;99.3
43414;DHT22;29013;49.676;8.606;2023-10-09T18:23:45;18.6;99.5
43414;DHT22;29013;49.676;8.606;2023-10-09T18:29:07;18.7;99.2
43414;DHT22;29013;49.676;8.606;2023-10-09T18:34:27;18.6;99.2
43414;DHT22;29013;49.676;8.606;2023-10-09T18:39:58;18.6;99.3
43414;DHT22;29013;49.676;8.606;2023-10-09T18:45:42;18.5;99.7
43414;DHT22;29013;49.676;8.606;2023-10-09T18:51:03;18.6;99.5
43414;DHT22;29013;49.676;8.606;2023-10-09T18:56:23;18.5;99.5
43414;DHT22;29013;49.676;8.606;2023-10-09T19:01:43;18.4;99.6
43414;DHT22;29013;49.676;8.606;2023-10-09T19:07:06;18.3;99.8
43414;DHT22;29013;49.676;8.606;2023-10-09T19:12:30;18.2;99.9
43414;DHT22;29013;49.676;8.606;2023-10-09T19:17:55;18.2;99.9
43414;DHT22;29013;49.676;8.606;2023-10-09T19:23:19;18.1;99.9
43414;DHT22;29013;49.676;8.606;2023-10-09T19:28:42;18.0;99.9
43414;DHT22;29013;49.676;8.606;2023-10-09T19:34:03;18.0;99.9
43414;DHT22;29013;49.676;8.606;2023-10-09T19:39:28;17.9;99.9
43414;DHT22;29013;49.676;8.606;2023-10-09T19:44:49;17.9;99.9
43414;DHT22;29013;49.676;8.606;2023-10-09T19:50:13;17.9;99.9
43414;DHT22;29013;49.676;8.606;2023-10-09T19:55:43;17.8;99.9
43414;DHT22;29013;49.676;8.606;2023-10-09T20:01:04;17.8;99.9
43414;DHT22;29013;49.676;8.606;2023-10-09T20:06:23;17.7;99.9
43414;DHT22;29013;49.676;8.606;2023-10-09T20:11:46;17.6;99.9
43414;DHT22;29013;49.676;8.606;2023-10-09T20:17:11;17.4;99.9
43414;DHT22;29013;49.676;8.606;2023-10-09T20:22:32;17.2;99.9
43414;DHT22;29013;49.676;8.606;2023-10-09T20:27:56;17.1;99.9
43414;DHT22;29013;49.676;8.606;2023-10-09T20:33:18;17.0;99.9
43414;DHT22;29013;49.676;8.606;2023-10-09T20:38:42;16.9;99.9
43414;DHT22;29013;49.676;8.606;2023-10-09T20:44:03;16.9;99.9
43414;DHT22;29013;49.676;8.606;2023-10-09T20:49:26;16.8;99.9
43414;DHT22;29013;49.676;8.606;2023-10-09T20:55:12;16.7;99.9
43414;DHT22;29013;49.676;8.606;2023-10-09T21:00:34;16.8;99.9
43414;DHT22;29013;49.676;8.606;2023-10-09T21:05:55;16.7;99.9
43414;DHT22;29013;49.676;8.606;2023-10-09T21:11:19;16.7;99.9
43414;DHT22;29013;49.676;8.606;2023-10-09T21:16:40;16.6;99.9
43414;DHT22;29013;49.676;8.606;2023-10-09T21:22:00;16.6;99.9
43414;DHT22;29013;49.676;8.606;2023-10-09T21:27:22;16.7;99.9
43414;DHT22;29013;49.676;8.606;2023-10-09T21:32:43;16.6;99.9
43414;DHT22;29013;49.676;8.606;2023-10-09T21:38:06;16.6;99.9
43414;DHT22;29013;49.676;8.606;2023-10-09T21:43:27;16.6;99.9
43414;DHT22;29013;49.676;8.606;2023-10-09T21:48:51;16.5;99.9
43414;DHT22;29013;49.676;8.606;2023-10-09T21:54:15;16.5;99.9
43414;DHT22;29013;49.676;8.606;2023-10-09T21:59:38;16.4;99.9
43414;DHT22;29013;49.676;8.606;2023-10-09T22:05:04;16.4;99.9
43414;DHT22;29013;49.676;8.606;2023-10-09T22:10:27;16.2;99.9
43414;DHT22;29013;49.676;8.606;2023-10-09T22:15:49;16.3;99.9
43414;DHT22;29013;49.676;8.606;2023-10-09T22:21:13;16.3;99.9
43414;DHT22;29013;49.676;8.606;2023-10-09T22:26:35;16.2;99.9
43414;DHT22;29013;49.676;8.606;2023-10-09T22:31:57;16.1;99.9
43414;DHT22;29013;49.676;8.606;2023-10-09T22:37:19;16.1;99.9
43414;DHT22;29013;49.676;8.606;2023-10-09T22:42:41;16.1;99.9
43414;DHT22;29013;49.676;8.606;2023-10-09T22:48:03;16.1;99.9
43414;DHT22;29013;49.676;8.606;2023-10-09T22:53:24;16.0;99.9
43414;DHT22;29013;49.676;8.606;2023-10-09T22:58:47;16.0;99.9
43414;DHT22;29013;49.676;8.606;2023-10-09T23:04:08;15.9;99.9
43414;DHT22;29013;49.676;8.606;2023-10-09T23:09:31;15.8;99.9
43414;DHT22;29013;49.676;8.606;2023-10-09T23:14:52;15.8;99.9
43414;DHT22;29013;49.676;8.606;2023-10-09T23:20:14;15.8;99.9
43414;DHT22;29013;49.676;8.606;2023-10-09T23:26:04;15.7;99.9
43414;DHT22;29013;49.676;8.606;2023-10-09T23:31:23;15.9;99.9
43414;DHT22;29013;49.676;8.606;2023-10-09T23:36:47;15.8;99.9
43414;DHT22;29013;49.676;8.606;2023-10-09T23:42:10;15.7;99.9
43414;DHT22;29013;49.676;8.606;2023-10-09T23:47:50;15.6;99.9
43414;DHT22;29013;49.676;8.606;2023-10-09T23:53:13;15.7;99.9
43414;DHT22;29013;49.676;8.606;2023-10-09T23:58:35;15.7;99.9
